Главная страница
METAR-TAF:

METAR-TAF

Аэропорты :

Вестерланд, Германия

широта: 54-55N, долгота: 008-21E, высота над уровнем моря: 16 м

Текущие метеонаблюдения

Эта сводка был подготовлена 43 минут назад, в 15:50 UTC
Ветер 12 Узел от западно-северо-западный
Температура 9°C
Влажность 87%
Давление 1006 hPa
Видимость 10 км и более
Рассеянная облачность на высоте 700 фута
Сплошная облачность на высоте 1300 фута

METAR: EDXW 141550Z 29012KT 9999 BKN007 OVC013 09/07 Q1006

Время: 18:33 (16:33 UTC)

Прогноз

Эта сводка был подготовлена 2 часа и 33 минут назад, в 14:00 UTC
Прогноз действительный с 14-го 15 UTC до 14-го 21 UTC
Ветер 10 Узел от западный
Видимость 10 км и более
Рассеянная облачность на высоте 800 фута
Вероятность 30% :
временами
С 14-го 18 UTC до 14-го 21 UTC
Видимость: 3500 м
Рассеянная облачность на высоте 1200 фута
дождь, Морось

TAF: EDXW 141400Z 1415/1421 28010KT 9999 BKN008 PROB30 TEMPO 1418/1421 3500 RADZ BKN012

Метеонаблюдения и прогнозы для более 4000 аэропортов (сводки METAR и TAF).

Имеющиеся станции представлены на карте желтыми и красными точками.

Чтобы увидеть название станции, наведите на нее мышь.

Затем щелкните, чтобы увидеть метеонаблюдения и метеопрогнозы.

Управление картой: чтобы увеличить масштаб, щелкните зеленые кнопки с черным крестиком; чтобы уменьшить масштаб, щелкните зеленую кнопку с тире; для просмотра соседних карт щелкайте зеленые стрелки.


METAR-TAF: